Hlavní strana
METAR-TAF:

METAR-TAF

Letiště :

Tarvisio, Itálie

zeměpisná šířka: 46-30N, zeměpisná délka: 013-35E, výška: 777 m

Aktuální stav počasí

Zpráva byla vytvořena před 50 minutami, v 06:55 UTC
Bezvětří
Teplota 20°C
Vlhkost vzduchu 83%
Tlak 1018 hPa
Viditelnost 10 km a více
Žádná oblačnost pod 1500 m, nevyskytují se cumulonimby.

METAR: LIVO 190655Z 00000KT CAVOK 20/17 Q1018 RMK SKC VIS MIN 9999

Čas: 09:45 (07:45 UTC)


TAF: chybějící

Stav a předpovědi počasí z více než 4 000 letišť (zprávy METAR a TAF).

Červené a žluté tečky na mapě představují dostupné meteorologické stanice.

Když kurzor umístíte na tečku, zobrazí se název stanice.

Pak kliknutím zobrazíte stav a předpověď počasí.

Chcete-li změnit mapu, kliknutím na zelené tlačítko se znaménkem +mapu přiblížíte, kliknutím na zelené tlačítko se znaménkem – mapu oddálíte a kliknutím na zelené šipky přejdete na sousední mapy.


METAR-TAF: